Time;durP1;ratioP1;P1;durP2;ratioP2;P2;SDS_P1;SDS_P2;PMS_P1;PMS_P2;Temp;Humidity;BMP_temperature;BMP_pressure;BME280_temperature;BME280_humidity;BME280_pressure;Samples;Min_cycle;Max_cycle;Signal;HPM_P1;HPM_P2
2022/04/30 00:02:13;;;;;;;13.35;6.78;;;13.10;74.10;;;;;;4987633;28;20031;-89
2022/04/30 00:04:44;;;;;;;8.85;6.88;;;13.10;74.50;;;;;;5011332;28;20054;-89
2022/04/30 00:07:12;;;;;;;9.73;6.65;;;13.10;74.80;;;;;;4988124;28;20030;-89
2022/04/30 00:09:38;;;;;;;8.10;6.60;;;13.10;74.80;;;;;;4994571;28;20528;-89
2022/04/30 00:12:05;;;;;;;9.10;7.60;;;13.20;75.00;;;;;;4989611;28;20026;-89
2022/04/30 00:14:31;;;;;;;12.55;7.35;;;13.10;75.10;;;;;;4991879;28;20025;-89
2022/04/30 00:16:57;;;;;;;9.32;7.75;;;13.10;75.20;;;;;;5005119;28;20084;-89
2022/04/30 00:19:24;;;;;;;12.40;8.80;;;13.20;75.50;;;;;;5003060;28;20038;-91
2022/04/30 00:21:50;;;;;;;12.55;8.25;;;13.20;75.40;;;;;;5015890;28;20017;-90
2022/04/30 00:24:16;;;;;;;10.27;8.35;;;13.10;75.50;;;;;;4997628;28;20066;-90
2022/04/30 00:26:43;;;;;;;9.55;7.78;;;13.10;75.70;;;;;;4984480;28;20029;-89
2022/04/30 00:29:09;;;;;;;9.52;7.72;;;13.10;75.90;;;;;;4989792;28;20085;-89
2022/04/30 00:31:35;;;;;;;11.15;7.93;;;13.10;76.10;;;;;;4996306;28;20536;-89
2022/04/30 00:34:02;;;;;;;11.98;8.05;;;13.10;76.30;;;;;;4996581;28;20030;-89
2022/04/30 00:36:28;;;;;;;11.30;8.32;;;13.10;76.40;;;;;;4986146;28;20026;-89
2022/04/30 00:38:54;;;;;;;12.50;7.90;;;13.00;76.50;;;;;;4995300;28;20514;-91
2022/04/30 00:41:21;;;;;;;10.48;8.30;;;13.00;76.70;;;;;;4996254;28;20065;-90
2022/04/30 00:43:49;;;;;;;11.27;8.90;;;12.90;76.90;;;;;;4989952;28;20105;-90
2022/04/30 00:46:15;;;;;;;13.02;8.32;;;12.80;77.20;;;;;;4993766;28;20030;-90
2022/04/30 00:48:42;;;;;;;11.43;8.32;;;12.80;77.40;;;;;;4984910;28;20026;-89
2022/04/30 00:51:10;;;;;;;9.90;7.68;;;12.80;77.70;;;;;;4987118;28;20018;-89
2022/04/30 00:53:38;;;;;;;8.60;7.70;;;12.80;77.90;;;;;;4986794;28;20117;-89
2022/04/30 00:56:05;;;;;;;10.45;7.85;;;12.70;78.20;;;;;;5012081;28;20434;-90
2022/04/30 00:58:34;;;;;;;9.98;7.80;;;12.70;78.40;;;;;;4995154;28;20037;-90
2022/04/30 01:01:01;;;;;;;10.18;7.60;;;12.70;78.50;;;;;;4984687;28;20057;-90
2022/04/30 01:03:27;;;;;;;10.70;8.13;;;12.70;78.60;;;;;;4993252;28;20034;-89
2022/04/30 01:05:55;;;;;;;11.57;7.68;;;12.60;78.70;;;;;;4989222;28;20034;-89
2022/04/30 01:08:20;;;;;;;10.18;7.75;;;12.60;79.00;;;;;;4991636;28;20086;-89
2022/04/30 01:10:46;;;;;;;9.55;7.57;;;12.50;79.30;;;;;;4994737;28;20025;-89
2022/04/30 01:13:13;;;;;;;10.27;7.07;;;12.50;79.40;;;;;;4995677;28;20026;-89
2022/04/30 01:15:39;;;;;;;8.75;6.70;;;12.40;79.80;;;;;;4990099;28;20026;-89
2022/04/30 01:18:10;;;;;;;6.68;5.97;;;12.40;79.80;;;;;;4980543;28;20450;-89
2022/04/30 01:20:42;;;;;;;7.18;6.40;;;12.40;80.20;;;;;;4982980;28;20034;-89
2022/04/30 01:23:09;;;;;;;7.35;6.40;;;12.30;80.30;;;;;;4978569;28;20029;-89
2022/04/30 01:25:35;;;;;;;7.55;6.05;;;12.30;80.60;;;;;;4994919;28;20029;-89
2022/04/30 01:28:02;;;;;;;8.20;6.93;;;12.20;81.00;;;;;;4989439;28;20547;-90
2022/04/30 01:30:28;;;;;;;9.48;6.82;;;12.30;81.50;;;;;;5002782;28;20026;-89
2022/04/30 01:38:22;;;;;;;10.18;6.50;;;12.30;82.50;;;;;;5013700;28;20044;-89
2022/04/30 01:40:48;;;;;;;8.38;6.85;;;12.30;82.50;;;;;;4989456;28;20116;-90
2022/04/30 01:43:16;;;;;;;8.57;6.68;;;12.40;82.80;;;;;;4986433;28;20030;-90
2022/04/30 01:45:44;;;;;;;9.18;6.65;;;12.30;83.20;;;;;;4987124;28;20025;-89
2022/04/30 01:48:13;;;;;;;11.13;6.97;;;12.40;83.20;;;;;;4996152;28;20026;-89
2022/04/30 01:50:40;;;;;;;10.48;6.85;;;12.30;83.50;;;;;;4994133;28;20131;-90
2022/04/30 01:53:06;;;;;;;8.73;7.20;;;12.40;84.00;;;;;;4979221;28;20026;-89
2022/04/30 01:55:31;;;;;;;9.13;6.85;;;12.30;84.30;;;;;;4985270;28;20028;-90
2022/04/30 01:57:57;;;;;;;8.75;6.68;;;12.30;84.60;;;;;;4980090;28;20023;-89
2022/04/30 02:00:23;;;;;;;8.35;6.63;;;12.40;85.00;;;;;;4982729;28;20679;-89
2022/04/30 02:02:50;;;;;;;7.80;7.00;;;12.30;85.40;;;;;;4980162;28;20026;-89
2022/04/30 02:05:17;;;;;;;8.30;7.22;;;12.30;85.70;;;;;;4992664;28;20034;-90
2022/04/30 02:08:03;;;;;;;11.10;7.97;;;12.30;85.60;;;;;;5003470;28;20042;-89
2022/04/30 02:10:29;;;;;;;10.82;8.15;;;12.20;86.10;;;;;;4995674;28;20021;-88
2022/04/30 02:12:55;;;;;;;12.70;8.18;;;12.10;86.20;;;;;;5004506;28;20122;-89
2022/04/30 02:15:22;;;;;;;12.85;8.25;;;12.10;87.00;;;;;;4995417;28;20041;-90
2022/04/30 02:17:49;;;;;;;10.38;7.93;;;12.10;87.70;;;;;;4992730;28;20096;-88
2022/04/30 02:20:22;;;;;;;10.55;8.60;;;12.10;88.10;;;;;;4991536;28;20402;-89
2022/04/30 02:22:54;;;;;;;10.13;8.10;;;12.20;88.20;;;;;;4991340;28;20085;-89
2022/04/30 02:25:21;;;;;;;9.40;8.27;;;12.20;88.30;;;;;;4995144;28;20030;-89
2022/04/30 02:27:52;;;;;;;10.13;7.90;;;12.10;88.00;;;;;;4995049;28;20042;-89
2022/04/30 02:30:21;;;;;;;12.18;7.90;;;12.10;88.10;;;;;;4991465;28;20051;-89
2022/04/30 02:32:48;;;;;;;9.20;7.78;;;12.10;88.20;;;;;;4986202;28;20022;-90
2022/04/30 02:35:15;;;;;;;12.00;7.68;;;12.00;88.50;;;;;;5011173;28;20394;-90
2022/04/30 02:37:45;;;;;;;10.85;7.75;;;12.00;88.60;;;;;;4993536;28;20116;-89
2022/04/30 02:40:13;;;;;;;10.15;8.25;;;11.90;88.70;;;;;;4989508;28;20141;-90
2022/04/30 02:42:39;;;;;;;10.70;8.30;;;11.90;89.30;;;;;;4984651;28;20034;-89
2022/04/30 02:45:09;;;;;;;12.95;8.55;;;11.80;89.60;;;;;;4991015;28;20064;-89
2022/04/30 02:47:38;;;;;;;12.57;8.43;;;11.90;90.10;;;;;;4987927;28;20124;-89
2022/04/30 02:50:05;;;;;;;13.13;8.32;;;11.80;90.30;;;;;;4996162;28;20049;-90
2022/04/30 02:52:31;;;;;;;9.95;8.15;;;11.80;90.40;;;;;;5005278;28;20006;-90
2022/04/30 02:54:56;;;;;;;12.15;8.35;;;11.90;90.40;;;;;;4999671;28;20026;-89
2022/04/30 02:57:22;;;;;;;12.32;8.80;;;11.90;90.40;;;;;;4992315;28;20022;-89
2022/04/30 02:59:53;;;;;;;11.27;8.35;;;11.90;90.40;;;;;;4981345;28;20054;-89
2022/04/30 03:02:20;;;;;;;15.43;9.52;;;11.80;90.70;;;;;;4992143;28;20054;-89
2022/04/30 03:04:53;;;;;;;15.85;8.38;;;11.80;90.70;;;;;;5002697;28;20438;-89
2022/04/30 03:07:19;;;;;;;10.90;8.45;;;11.70;90.80;;;;;;4992544;28;20565;-89
2022/04/30 03:09:48;;;;;;;15.88;8.98;;;11.70;91.00;;;;;;4990946;28;20513;-90
2022/04/30 03:12:16;;;;;;;10.35;8.27;;;11.70;91.20;;;;;;5002404;28;20030;-89
2022/04/30 03:14:42;;;;;;;10.80;9.02;;;11.70;91.30;;;;;;4996049;28;20033;-89
2022/04/30 03:22:37;;;;;;;9.10;8.23;;;11.70;91.60;;;;;;5017015;28;20068;-89
2022/04/30 03:25:03;;;;;;;12.25;9.00;;;11.70;91.50;;;;;;5000790;28;20030;-89
2022/04/30 03:27:29;;;;;;;12.02;8.52;;;11.60;91.50;;;;;;4993784;28;20033;-89
2022/04/30 03:29:55;;;;;;;12.45;9.05;;;11.60;91.70;;;;;;5004380;23;20050;-90
2022/04/30 03:32:21;;;;;;;12.93;8.23;;;11.60;92.00;;;;;;4995641;28;20053;-89
2022/04/30 03:34:47;;;;;;;11.73;8.70;;;11.50;92.20;;;;;;4991497;28;20030;-89
2022/04/30 03:37:13;;;;;;;10.40;8.82;;;11.50;92.30;;;;;;4985872;28;20080;-89
2022/04/30 03:39:39;;;;;;;10.82;8.98;;;11.60;92.50;;;;;;4972442;28;20041;-88
2022/04/30 03:42:05;;;;;;;14.27;8.88;;;11.50;92.50;;;;;;4968189;28;20026;-90
2022/04/30 03:44:31;;;;;;;12.18;9.43;;;11.60;92.50;;;;;;4991039;28;20027;-89
2022/04/30 03:46:57;;;;;;;11.43;8.60;;;11.60;92.60;;;;;;4977564;28;20117;-88
2022/04/30 03:49:23;;;;;;;10.30;8.43;;;11.60;92.70;;;;;;4981322;28;20034;-90
2022/04/30 03:51:48;;;;;;;10.68;9.00;;;11.60;92.70;;;;;;4968307;28;20257;-89
2022/04/30 03:54:14;;;;;;;9.90;8.90;;;11.60;92.70;;;;;;4991163;28;20030;-89
2022/04/30 03:56:39;;;;;;;11.77;9.13;;;11.60;92.70;;;;;;4977928;28;20026;-88
2022/04/30 03:59:05;;;;;;;12.65;9.13;;;11.60;92.90;;;;;;4972886;28;20502;-88
2022/04/30 04:01:31;;;;;;;11.75;9.05;;;11.60;92.90;;;;;;4969732;28;20387;-89
2022/04/30 04:04:00;;;;;;;12.75;8.88;;;11.60;93.00;;;;;;4991414;28;20085;-89
2022/04/30 04:06:26;;;;;;;13.00;9.98;;;11.60;93.20;;;;;;4972727;28;20034;-89
2022/04/30 04:08:52;;;;;;;12.88;11.07;;;11.50;93.10;;;;;;4994479;28;20026;-90
2022/04/30 04:11:18;;;;;;;12.55;10.55;;;11.40;93.20;;;;;;4966312;28;20022;-89
2022/04/30 04:19:12;;;;;;;12.27;9.18;;;11.30;93.70;;;;;;4991223;28;20108;-89
2022/04/30 04:21:38;;;;;;;11.05;9.00;;;11.30;93.80;;;;;;4969816;28;20026;-88
2022/04/30 04:26:48;;;;;;;11.50;8.88;;;11.40;93.80;;;;;;4984406;28;20093;-90
2022/04/30 04:29:16;;;;;;;13.48;10.00;;;11.30;93.70;;;;;;4971029;28;20046;-90
2022/04/30 04:31:43;;;;;;;12.30;9.63;;;11.20;93.90;;;;;;4970980;28;20484;-90
2022/04/30 04:34:09;;;;;;;11.18;9.20;;;11.30;94.10;;;;;;4976556;28;20121;-89
2022/04/30 04:36:36;;;;;;;11.80;9.27;;;11.30;94.20;;;;;;5001609;28;20015;-89
2022/04/30 04:39:08;;;;;;;11.10;8.98;;;11.30;94.20;;;;;;5011000;28;20034;-88
2022/04/30 04:41:33;;;;;;;10.38;9.23;;;11.30;94.20;;;;;;4997383;28;20120;-88
2022/04/30 04:44:02;;;;;;;11.70;9.15;;;11.30;94.30;;;;;;5000908;28;20030;-89
2022/04/30 04:46:28;;;;;;;11.00;8.80;;;11.30;94.50;;;;;;4977960;28;20100;-89
2022/04/30 04:48:53;;;;;;;11.35;8.80;;;11.40;94.60;;;;;;4971093;28;20039;-89
2022/04/30 04:51:20;;;;;;;15.32;9.15;;;11.40;94.80;;;;;;4966689;28;20558;-89
2022/04/30 04:53:45;;;;;;;10.35;9.07;;;11.50;94.80;;;;;;4976122;28;20430;-89
2022/04/30 04:56:11;;;;;;;10.63;9.48;;;11.50;94.80;;;;;;4976522;28;20110;-89
2022/04/30 04:58:36;;;;;;;12.02;9.25;;;11.60;94.80;;;;;;4988957;28;20022;-89
2022/04/30 05:01:03;;;;;;;15.07;9.32;;;11.60;94.70;;;;;;4966839;28;20031;-89
2022/04/30 05:03:28;;;;;;;11.30;8.82;;;11.60;94.60;;;;;;4976726;28;20049;-89
2022/04/30 05:05:54;;;;;;;10.50;8.70;;;11.60;94.70;;;;;;4970072;28;20077;-89
2022/04/30 05:08:20;;;;;;;11.43;8.95;;;11.70;94.90;;;;;;4963472;28;20039;-88
2022/04/30 05:10:46;;;;;;;13.60;9.13;;;11.70;95.00;;;;;;4973528;28;20035;-91
2022/04/30 05:13:12;;;;;;;12.93;8.88;;;11.80;95.10;;;;;;4986161;28;20060;-90
2022/04/30 05:15:37;;;;;;;14.77;9.00;;;11.80;95.00;;;;;;4966675;28;20027;-89
2022/04/30 05:18:04;;;;;;;10.73;9.00;;;11.90;94.90;;;;;;4988517;28;20460;-88
2022/04/30 05:20:29;;;;;;;12.43;8.98;;;12.00;94.90;;;;;;4982844;28;20042;-89
2022/04/30 05:22:55;;;;;;;12.75;10.27;;;12.00;94.70;;;;;;4982637;28;20435;-90
2022/04/30 05:25:20;;;;;;;10.85;9.18;;;12.00;94.50;;;;;;4965765;28;20026;-90
2022/04/30 05:27:46;;;;;;;10.82;8.60;;;11.90;94.50;;;;;;4974856;28;20399;-89
2022/04/30 05:30:12;;;;;;;11.27;8.32;;;11.80;94.50;;;;;;4989217;28;20098;-90
2022/04/30 05:32:37;;;;;;;13.38;8.95;;;11.80;94.90;;;;;;4963023;28;20030;-89
2022/04/30 05:35:03;;;;;;;10.27;8.43;;;11.90;95.10;;;;;;4975629;28;20026;-89
2022/04/30 05:37:29;;;;;;;10.32;8.40;;;11.90;95.20;;;;;;4975490;28;20037;-91
2022/04/30 05:39:54;;;;;;;11.63;8.57;;;11.90;95.10;;;;;;4992287;28;20053;-90
2022/04/30 05:42:20;;;;;;;11.80;9.38;;;11.90;95.00;;;;;;4967036;28;20082;-90
2022/04/30 05:44:46;;;;;;;12.70;8.95;;;11.90;95.00;;;;;;4967354;28;20030;-89
2022/04/30 05:47:11;;;;;;;10.98;9.45;;;11.90;94.90;;;;;;4974324;28;20045;-90
2022/04/30 05:49:37;;;;;;;13.07;8.77;;;11.90;95.10;;;;;;4962653;28;20475;-90
2022/04/30 05:52:03;;;;;;;10.30;8.40;;;11.90;95.20;;;;;;4966061;28;20048;-89
2022/04/30 05:54:28;;;;;;;13.38;8.27;;;11.90;95.10;;;;;;4968478;28;20045;-90
2022/04/30 05:56:54;;;;;;;13.82;9.70;;;12.00;95.10;;;;;;4992364;28;20113;-90
2022/04/30 05:59:19;;;;;;;14.77;8.95;;;12.00;95.10;;;;;;4987091;28;20026;-89
2022/04/30 06:01:45;;;;;;;12.55;9.27;;;11.90;95.00;;;;;;4969700;28;20034;-90
2022/04/30 06:04:11;;;;;;;15.70;9.40;;;11.90;95.20;;;;;;4961499;28;20019;-90
2022/04/30 06:06:36;;;;;;;13.40;10.25;;;12.00;95.60;;;;;;4974342;28;20023;-89
2022/04/30 06:09:02;;;;;;;14.45;10.35;;;12.10;95.80;;;;;;4975417;28;20026;-90
2022/04/30 06:11:28;;;;;;;16.60;10.55;;;12.10;96.00;;;;;;4967800;28;20038;-91
2022/04/30 06:13:53;;;;;;;12.93;10.07;;;12.20;95.90;;;;;;4972986;28;20069;-90
2022/04/30 06:16:19;;;;;;;14.82;10.07;;;12.20;95.70;;;;;;4966490;28;20394;-90
2022/04/30 06:18:44;;;;;;;16.52;10.30;;;12.20;95.70;;;;;;4979534;28;20060;-91
2022/04/30 06:21:10;;;;;;;13.75;10.15;;;12.20;95.90;;;;;;4977384;28;20487;-91
2022/04/30 06:23:36;;;;;;;16.00;10.52;;;12.30;96.20;;;;;;4981367;28;20123;-87
2022/04/30 06:26:01;;;;;;;14.95;10.48;;;12.30;96.10;;;;;;5007578;28;20058;-89
2022/04/30 06:28:27;;;;;;;14.63;10.05;;;12.30;95.80;;;;;;4986751;28;20038;-85
2022/04/30 06:30:53;;;;;;;15.30;10.32;;;12.30;95.80;;;;;;5004617;28;20022;-87
2022/04/30 06:33:18;;;;;;;13.88;10.43;;;12.30;96.00;;;;;;4973336;28;20072;-88
2022/04/30 06:35:44;;;;;;;17.75;10.93;;;12.30;96.20;;;;;;4969974;28;20538;-88
2022/04/30 06:38:11;;;;;;;19.27;11.80;;;12.40;96.30;;;;;;4974627;28;20026;-88
2022/04/30 06:40:37;;;;;;;16.63;10.32;;;12.40;96.10;;;;;;4975519;28;20581;-90
2022/04/30 06:43:02;;;;;;;16.17;10.55;;;12.50;96.20;;;;;;4973794;28;20053;-88
2022/04/30 06:45:29;;;;;;;15.82;10.80;;;12.50;96.30;;;;;;4974720;28;20482;-89
2022/04/30 06:47:54;;;;;;;15.88;11.40;;;12.50;96.30;;;;;;4960752;28;20042;-88
2022/04/30 06:50:20;;;;;;;17.67;10.63;;;12.60;96.30;;;;;;4968808;28;20380;-88
2022/04/30 06:58:17;;;;;;;17.20;10.45;;;12.60;96.10;;;;;;4990768;28;20060;-89
2022/04/30 07:03:26;;;;;;;17.63;11.00;;;12.60;96.20;;;;;;4990489;28;20072;-89
2022/04/30 07:05:57;;;;;;;17.55;11.05;;;12.60;96.20;;;;;;4978720;28;20506;-89
2022/04/30 07:08:22;;;;;;;15.15;10.82;;;12.60;96.40;;;;;;4986456;28;20074;-88
2022/04/30 07:10:48;;;;;;;14.13;10.82;;;12.70;96.70;;;;;;4979000;28;20022;-89
2022/04/30 07:13:13;;;;;;;16.98;10.90;;;12.70;96.60;;;;;;4993445;28;20631;-88
2022/04/30 07:15:39;;;;;;;19.45;11.68;;;12.80;96.60;;;;;;4971234;28;20058;-89
2022/04/30 07:18:05;;;;;;;15.25;11.02;;;12.80;96.60;;;;;;4967177;28;20026;-89
2022/04/30 07:20:30;;;;;;;18.65;11.13;;;12.90;96.80;;;;;;4962102;28;20030;-89
2022/04/30 07:22:56;;;;;;;17.42;10.88;;;13.00;97.00;;;;;;4970340;28;20514;-89
2022/04/30 07:25:22;;;;;;;15.65;11.55;;;13.10;97.00;;;;;;4969968;28;20504;-90
2022/04/30 07:27:47;;;;;;;16.70;10.30;;;13.20;97.10;;;;;;4988435;28;20117;-90
2022/04/30 07:30:13;;;;;;;14.63;10.65;;;13.40;97.00;;;;;;4988531;28;20034;-90
2022/04/30 07:32:40;;;;;;;18.05;10.88;;;13.40;96.80;;;;;;4992925;28;20023;-90
2022/04/30 07:35:08;;;;;;;18.15;10.95;;;13.50;96.60;;;;;;4967891;28;20107;-92
2022/04/30 07:37:34;;;;;;;19.13;11.23;;;13.50;96.40;;;;;;4988423;28;20027;-90
2022/04/30 07:39:59;;;;;;;20.27;10.05;;;13.50;96.20;;;;;;4977039;28;20031;-90
2022/04/30 07:42:25;;;;;;;16.17;10.45;;;13.40;96.20;;;;;;4966244;28;20031;-89
2022/04/30 07:44:51;;;;;;;15.52;10.65;;;13.40;96.40;;;;;;4992744;28;20034;-90
2022/04/30 07:47:16;;;;;;;14.00;10.40;;;13.40;96.20;;;;;;4987941;28;20031;-89
2022/04/30 07:49:42;;;;;;;16.30;10.40;;;13.50;96.20;;;;;;4970107;28;20510;-90
2022/04/30 07:52:08;;;;;;;17.52;10.35;;;13.50;96.30;;;;;;4989058;28;20058;-90
2022/04/30 07:54:33;;;;;;;18.20;10.88;;;13.60;96.30;;;;;;4973354;28;20034;-90
2022/04/30 07:56:59;;;;;;;15.00;10.00;;;13.60;95.90;;;;;;4989418;28;20102;-90
2022/04/30 07:59:26;;;;;;;18.65;10.57;;;13.70;96.10;;;;;;4976078;28;20690;-89
2022/04/30 08:01:52;;;;;;;17.95;9.57;;;14.10;96.30;;;;;;4976028;28;20527;-90
2022/04/30 08:04:19;;;;;;;16.83;9.18;;;14.60;96.20;;;;;;4991869;28;20483;-88
2022/04/30 08:06:45;;;;;;;16.88;9.82;;;15.00;95.60;;;;;;4966718;28;20046;-89
2022/04/30 08:09:10;;;;;;;18.08;9.07;;;15.40;95.50;;;;;;4974544;28;20046;-87
2022/04/30 08:11:36;;;;;;;19.13;13.20;;;15.60;95.40;;;;;;4971337;28;20077;-91
2022/04/30 08:14:02;;;;;;;21.13;10.85;;;15.70;95.40;;;;;;4970851;28;20033;-90
2022/04/30 08:21:37;;;;;;;18.17;11.07;;;16.00;94.30;;;;;;4963235;28;20039;-90
2022/04/30 08:24:04;;;;;;;14.60;9.50;;;16.10;94.10;;;;;;4957260;28;20045;-86
2022/04/30 08:26:31;;;;;;;14.82;9.85;;;16.20;93.50;;;;;;4966248;28;20445;-88
2022/04/30 08:29:00;;;;;;;13.15;9.15;;;16.40;93.30;;;;;;4962870;28;20035;-88
2022/04/30 08:31:26;;;;;;;12.90;9.10;;;16.80;93.20;;;;;;4976199;28;20047;-91
2022/04/30 08:49:18;;;;;;;15.88;8.43;;;19.00;90.90;;;;;;5005522;28;20049;-91
2022/04/30 08:51:45;;;;;;;11.43;8.98;;;19.10;90.30;;;;;;4997332;28;20053;-90
2022/04/30 08:54:10;;;;;;;20.58;9.50;;;19.30;89.70;;;;;;4991662;28;20023;-91
2022/04/30 08:56:36;;;;;;;13.95;9.23;;;19.70;89.10;;;;;;4965041;28;20162;-91
2022/04/30 08:59:06;;;;;;;10.27;7.70;;;20.00;88.10;;;;;;4958919;28;20030;-90
2022/04/30 09:01:47;;;;;;;11.70;8.27;;;20.20;86.80;;;;;;4961753;28;20030;-91
2022/04/30 09:04:13;;;;;;;11.18;8.07;;;20.40;85.20;;;;;;4982095;28;20038;-91
2022/04/30 09:06:47;;;;;;;13.38;8.23;;;20.60;84.40;;;;;;4974346;28;20081;-90
2022/04/30 09:09:28;;;;;;;11.13;7.60;;;20.90;82.70;;;;;;4972366;28;20035;-91
2022/04/30 09:11:57;;;;;;;12.50;7.82;;;20.90;81.50;;;;;;4973633;28;20022;-91
2022/04/30 09:14:27;;;;;;;11.85;8.50;;;20.70;81.20;;;;;;4978608;28;20022;-91
2022/04/30 09:17:03;;;;;;;32.60;24.38;;;20.40;80.50;;;;;;4978850;28;20026;-91
2022/04/30 09:19:28;;;;;;;14.50;10.50;;;20.10;79.80;;;;;;4978287;28;20026;-91
2022/04/30 09:21:54;;;;;;;15.68;9.23;;;20.00;79.80;;;;;;4981293;28;20042;-91
2022/04/30 09:24:20;;;;;;;17.27;8.93;;;20.00;79.20;;;;;;4994776;28;20018;-88
2022/04/30 09:26:45;;;;;;;13.32;9.00;;;20.00;78.60;;;;;;4993408;28;20039;-89
2022/04/30 09:29:23;;;;;;;15.02;9.20;;;19.90;77.80;;;;;;4994654;28;20042;-89
2022/04/30 09:31:53;;;;;;;15.02;9.50;;;19.50;75.90;;;;;;4993515;28;20108;-90
2022/04/30 09:39:50;;;;;;;11.77;8.85;;;19.80;76.80;;;;;;4994090;28;20033;-91
2022/04/30 09:42:16;;;;;;;12.70;8.35;;;19.70;76.20;;;;;;4977633;28;20026;-91
2022/04/30 09:44:41;;;;;;;15.65;9.27;;;20.20;75.00;;;;;;4976960;28;20482;-91
2022/04/30 09:47:08;;;;;;;13.85;8.77;;;20.80;73.80;;;;;;4977348;28;20022;-91
2022/04/30 09:55:07;;;;;;;10.18;8.10;;;21.90;68.50;;;;;;4996121;28;20038;-91
2022/04/30 09:57:35;;;;;;;11.57;8.60;;;21.40;69.30;;;;;;4981320;28;20026;-92
2022/04/30 10:00:03;;;;;;;14.30;9.13;;;20.80;70.60;;;;;;4974922;28;20507;-92
2022/04/30 10:02:33;;;;;;;16.65;9.68;;;20.30;71.20;;;;;;4970679;28;20034;-90
2022/04/30 10:05:03;;;;;;;15.60;9.27;;;20.10;71.60;;;;;;4972169;28;20062;-90
2022/04/30 10:07:30;;;;;;;12.63;9.05;;;19.80;71.90;;;;;;4974147;28;20464;-91
2022/04/30 10:10:10;;;;;;;13.82;9.02;;;19.40;72.10;;;;;;4967411;28;20483;-92
2022/04/30 10:12:42;;;;;;;14.48;9.68;;;18.90;73.20;;;;;;4977664;28;20030;-91
2022/04/30 10:15:27;;;;;;;12.88;9.55;;;18.60;74.00;;;;;;4978081;28;20098;-90
2022/04/30 10:17:54;;;;;;;14.85;9.10;;;18.30;74.10;;;;;;4979020;28;20031;-90
2022/04/30 10:20:33;;;;;;;13.73;10.10;;;18.00;74.70;;;;;;4976884;28;20031;-90
2022/04/30 10:23:02;;;;;;;13.65;9.82;;;17.80;75.00;;;;;;4977792;28;20030;-89
2022/04/30 10:25:35;;;;;;;15.02;9.15;;;17.60;75.00;;;;;;4977526;28;20045;-89
2022/04/30 10:28:10;;;;;;;13.13;9.48;;;17.50;75.60;;;;;;4963880;28;20038;-90
2022/04/30 10:30:38;;;;;;;14.50;9.85;;;17.40;76.30;;;;;;4967377;28;20459;-90
2022/04/30 10:33:06;;;;;;;14.77;10.10;;;17.40;76.60;;;;;;4981618;28;20396;-90
2022/04/30 10:35:34;;;;;;;15.07;10.52;;;17.30;76.60;;;;;;4977260;28;20058;-91
2022/04/30 10:38:09;;;;;;;15.52;10.52;;;17.20;77.30;;;;;;4974372;28;20026;-90
2022/04/30 10:40:47;;;;;;;12.35;9.60;;;17.30;77.30;;;;;;4974342;28;20026;-90
2022/04/30 10:43:26;;;;;;;16.02;9.45;;;17.40;77.20;;;;;;4977405;28;20093;-89
2022/04/30 10:45:52;;;;;;;12.02;9.02;;;17.50;77.00;;;;;;4977659;28;20030;-90
2022/04/30 10:48:19;;;;;;;14.15;9.63;;;17.40;77.40;;;;;;4977621;28;20116;-90
2022/04/30 10:50:51;;;;;;;13.50;10.00;;;17.30;77.50;;;;;;4978692;28;20053;-89
2022/04/30 10:53:19;;;;;;;15.77;9.98;;;17.40;77.60;;;;;;4978978;28;20088;-90
2022/04/30 10:55:45;;;;;;;51.63;35.55;;;17.40;77.60;;;;;;4980158;28;20117;-91
2022/04/30 10:58:14;;;;;;;14.93;9.93;;;17.60;77.70;;;;;;4980460;28;20034;-92
2022/04/30 11:00:40;;;;;;;16.42;10.18;;;17.80;77.40;;;;;;4979820;28;20435;-90
2022/04/30 11:03:10;;;;;;;12.80;9.73;;;17.70;76.10;;;;;;4980212;28;20068;-91
2022/04/30 11:05:36;;;;;;;14.80;9.30;;;17.70;76.00;;;;;;4980498;28;20026;-91
2022/04/30 11:08:08;;;;;;;13.45;10.18;;;17.50;76.90;;;;;;4980928;28;20483;-90
2022/04/30 11:10:36;;;;;;;18.77;10.13;;;17.40;76.80;;;;;;4982142;28;20018;-90
2022/04/30 11:13:06;;;;;;;13.15;9.68;;;17.30;77.00;;;;;;4981903;28;20023;-91
2022/04/30 11:15:33;;;;;;;13.70;9.13;;;17.20;77.80;;;;;;4972277;28;20491;-91
2022/04/30 11:17:59;;;;;;;13.00;9.93;;;17.20;78.20;;;;;;4962848;28;20197;-89
2022/04/30 11:20:27;;;;;;;18.75;10.27;;;17.00;77.60;;;;;;4961808;28;20038;-89
2022/04/30 11:22:54;;;;;;;14.73;10.52;;;16.80;77.20;;;;;;4967539;28;20034;-90
2022/04/30 11:25:20;;;;;;;15.88;9.98;;;16.60;77.20;;;;;;4984572;28;20031;-91
2022/04/30 11:27:46;;;;;;;15.20;10.40;;;16.40;77.40;;;;;;5012203;28;20060;-92
2022/04/30 11:30:15;;;;;;;12.02;9.73;;;16.30;77.90;;;;;;5002126;28;20026;-90
2022/04/30 11:32:47;;;;;;;13.57;9.98;;;16.20;78.70;;;;;;4993575;28;20728;-91
2022/04/30 11:35:16;;;;;;;16.25;10.40;;;16.30;79.10;;;;;;4980870;28;20023;-92
2022/04/30 11:37:45;;;;;;;17.15;11.77;;;16.40;79.10;;;;;;4981245;28;20490;-91
2022/04/30 11:40:12;;;;;;;14.73;9.52;;;16.50;79.40;;;;;;4980837;28;20038;-93
2022/04/30 11:42:37;;;;;;;13.43;10.20;;;16.70;80.00;;;;;;4979337;28;20057;-91
2022/04/30 11:45:10;;;;;;;15.98;10.20;;;16.70;79.00;;;;;;4980207;28;20569;-91
2022/04/30 11:47:38;;;;;;;14.98;9.90;;;16.90;79.50;;;;;;4981112;28;20026;-91
2022/04/30 11:50:06;;;;;;;13.98;10.05;;;17.10;79.90;;;;;;4980060;28;20025;-91
2022/04/30 11:52:36;;;;;;;13.52;9.40;;;17.20;79.50;;;;;;4977022;28;20069;-92
2022/04/30 11:55:06;;;;;;;15.02;10.35;;;17.20;79.20;;;;;;4960575;28;20078;-92
2022/04/30 11:57:34;;;;;;;16.42;9.82;;;17.30;79.30;;;;;;4962428;28;20031;-91
2022/04/30 12:00:02;;;;;;;13.27;10.23;;;17.20;78.90;;;;;;4980757;28;20037;-91
2022/04/30 12:02:39;;;;;;;14.57;10.32;;;16.90;78.80;;;;;;4991286;28;20018;-89
2022/04/30 12:05:19;;;;;;;13.40;9.98;;;16.70;79.50;;;;;;5001813;28;20017;-89
2022/04/30 12:07:47;;;;;;;16.35;9.80;;;16.40;80.10;;;;;;4985687;28;20034;-91
2022/04/30 12:10:24;;;;;;;11.88;9.43;;;16.30;81.00;;;;;;4987781;28;20022;-92
2022/04/30 12:12:51;;;;;;;61.55;42.72;;;16.30;81.60;;;;;;4973196;28;20114;-91
2022/04/30 12:15:29;;;;;;;17.50;13.48;;;16.30;81.80;;;;;;4959492;28;20049;-92
2022/04/30 12:24:43;;;;;;;12.68;10.27;;;16.00;81.50;;;;;;4975666;28;20038;-90
2022/04/30 12:27:21;;;;;;;14.07;10.98;;;15.80;82.20;;;;;;4961360;28;20037;-91
2022/04/30 12:30:21;;;;;;;14.25;10.05;;;15.60;82.90;;;;;;4969881;28;20034;-91
2022/04/30 12:33:03;;;;;;;14.63;10.45;;;15.60;83.40;;;;;;4978474;28;20018;-92
2022/04/30 12:36:10;;;;;;;;;;;;;;;;;;;;;
2022/04/30 12:38:59;;;;;;;16.60;10.70;;;15.30;83.10;;;;;;4994933;28;20118;-91
2022/04/30 12:41:42;;;;;;;13.90;9.55;;;15.00;83.50;;;;;;4986157;28;20073;-90
2022/04/30 12:44:25;;;;;;;11.93;9.25;;;14.80;84.20;;;;;;4973020;28;20035;-91
2022/04/30 12:47:00;;;;;;;11.25;9.10;;;14.60;84.60;;;;;;4987507;28;20032;-90
2022/04/30 12:49:38;;;;;;;11.68;9.45;;;14.40;85.50;;;;;;4977346;28;20033;-91
2022/04/30 12:52:18;;;;;;;12.13;8.75;;;14.40;86.60;;;;;;4977790;28;20019;-91
2022/04/30 12:54:50;;;;;;;9.18;7.93;;;14.40;87.80;;;;;;4977050;28;20023;-92
2022/04/30 12:57:31;;;;;;;9.80;7.75;;;14.40;87.30;;;;;;4978560;28;20030;-91
2022/04/30 13:00:21;;;;;;;9.40;7.80;;;14.40;87.30;;;;;;4978460;28;20097;-92
2022/04/30 13:02:47;;;;;;;9.02;7.50;;;14.30;87.20;;;;;;4978487;28;20419;-92
2022/04/30 13:05:18;;;;;;;10.27;7.40;;;14.20;87.40;;;;;;4977577;28;20035;-91
2022/04/30 13:07:45;;;;;;;8.13;6.93;;;14.20;87.80;;;;;;4978671;28;20027;-91
2022/04/30 13:16:14;;;;;;;8.40;6.82;;;14.00;89.00;;;;;;4935406;29;20039;-92
2022/04/30 13:18:46;;;;;;;7.80;6.38;;;14.00;89.60;;;;;;4924073;29;20647;-91
2022/04/30 13:21:15;;;;;;;8.63;7.57;;;13.90;90.10;;;;;;4957878;28;20038;-91
2022/04/30 13:23:44;;;;;;;9.85;7.80;;;13.90;90.40;;;;;;4977345;28;20034;-91
2022/04/30 13:26:19;;;;;;;8.30;6.95;;;14.00;90.80;;;;;;4976835;28;20467;-92
2022/04/30 13:28:56;;;;;;;9.35;7.55;;;14.10;91.00;;;;;;4976920;28;20538;-91
2022/04/30 13:31:46;;;;;;;8.30;7.03;;;14.20;91.00;;;;;;4977016;28;20023;-90
2022/04/30 13:34:21;;;;;;;9.60;7.28;;;14.10;91.10;;;;;;4993987;28;20113;-89
2022/04/30 13:36:53;;;;;;;10.20;7.05;;;14.10;91.00;;;;;;4976258;28;20014;-90
2022/04/30 13:39:24;;;;;;;7.00;5.35;;;14.10;91.20;;;;;;4976397;28;20086;-90
2022/04/30 13:41:53;;;;;;;8.90;7.20;;;14.10;91.30;;;;;;4977615;28;20030;-91
2022/04/30 13:44:18;;;;;;;9.60;7.47;;;14.20;91.40;;;;;;4991034;28;20061;-88
2022/04/30 13:46:46;;;;;;;8.18;7.20;;;14.30;91.50;;;;;;4998507;28;20019;-87
2022/04/30 13:49:13;;;;;;;9.40;7.35;;;14.20;91.50;;;;;;5000089;28;20030;-88
2022/04/30 13:51:47;;;;;;;7.70;6.70;;;14.20;91.60;;;;;;5000145;28;20034;-87
2022/04/30 13:54:13;;;;;;;7.18;6.47;;;14.20;91.80;;;;;;4999820;28;20034;-87
2022/04/30 13:56:45;;;;;;;8.85;7.03;;;14.30;91.90;;;;;;4992983;28;20035;-88